Time;durP1;ratioP1;P1;durP2;ratioP2;P2;SDS_P1;SDS_P2;PMS_P1;PMS_P2;Temp;Humidity;BMP_temperature;BMP_pressure;BME280_temperature;BME280_humidity;BME280_pressure;Samples;Min_cycle;Max_cycle;Signal;HPM_P1;HPM_P2
2021/11/06 00:02:01;;;;;;;10.35;1.90;;;;;;;8.21;100.00;102200.44;10221257;28;20064;-76
2021/11/06 00:06:57;;;;;;;14.35;1.60;;;;;;;8.28;100.00;102207.53;10223857;28;20045;-72
2021/11/06 00:11:54;;;;;;;8.82;1.70;;;;;;;8.30;99.79;102208.09;10215016;28;20057;-77
2021/11/06 00:16:53;;;;;;;7.78;1.90;;;;;;;8.29;99.16;102212.72;10209404;28;20071;-73
2021/11/06 00:21:50;;;;;;;12.13;2.08;;;;;;;8.33;99.00;102213.00;10220059;28;20083;-72
2021/11/06 00:26:50;;;;;;;13.50;1.60;;;;;;;8.33;97.78;102218.44;10222418;28;20690;-72
2021/11/06 00:31:47;;;;;;;9.85;1.13;;;;;;;8.35;97.25;102221.72;10216142;28;20042;-74
2021/11/06 00:36:44;;;;;;;9.02;1.58;;;;;;;8.29;97.52;102226.34;10211328;28;20045;-73
2021/11/06 00:41:41;;;;;;;11.45;1.35;;;;;;;8.30;97.33;102221.72;10220466;28;20446;-73
2021/11/06 00:46:37;;;;;;;6.85;1.42;;;;;;;8.28;97.05;102234.78;10217179;28;20566;-74
2021/11/06 00:51:34;;;;;;;6.75;1.30;;;;;;;8.31;97.14;102232.38;10221335;28;20080;-72
2021/11/06 00:56:30;;;;;;;7.53;1.30;;;;;;;8.35;95.87;102238.09;10209426;28;20523;-73
2021/11/06 01:01:26;;;;;;;9.70;1.90;;;;;;;8.30;96.07;102235.34;10219629;28;20069;-73
2021/11/06 01:06:24;;;;;;;7.53;1.75;;;;;;;8.28;97.36;102237.50;10238248;28;20041;-73
2021/11/06 01:11:20;;;;;;;14.25;1.83;;;;;;;8.13;97.39;102230.91;10244911;28;20050;-75
2021/11/06 01:16:18;;;;;;;5.65;1.20;;;;;;;8.10;98.54;102239.63;10238955;28;20054;-74
2021/11/06 01:21:15;;;;;;;6.43;1.83;;;;;;;8.10;98.65;102247.78;10247438;28;20045;-71
2021/11/06 01:26:11;;;;;;;8.85;1.55;;;;;;;8.03;99.73;102236.31;10234085;28;20179;-73
2021/11/06 01:31:08;;;;;;;10.23;1.30;;;;;;;8.02;99.81;102240.09;10240288;28;20455;-72
2021/11/06 01:36:05;;;;;;;7.03;1.10;;;;;;;8.03;99.13;102241.75;10251549;28;20151;-73
2021/11/06 01:41:01;;;;;;;5.97;1.05;;;;;;;8.00;98.60;102231.38;10238132;28;20077;-73
2021/11/06 01:46:00;;;;;;;7.45;1.63;;;;;;;7.93;97.65;102236.22;10240885;28;20045;-73
2021/11/06 01:50:59;;;;;;;12.55;1.48;;;;;;;7.96;97.61;102241.97;10250990;28;20100;-72
2021/11/06 01:55:58;;;;;;;9.15;1.40;;;;;;;7.97;97.61;102231.91;10242067;28;20091;-73
2021/11/06 02:00:56;;;;;;;6.43;1.20;;;;;;;7.98;97.35;102222.63;10242766;28;20050;-72
2021/11/06 02:05:53;;;;;;;9.07;1.25;;;;;;;8.08;97.31;102228.16;10229754;28;20124;-73
2021/11/06 02:10:50;;;;;;;10.10;1.50;;;;;;;8.11;96.88;102222.16;10244248;28;20049;-74
2021/11/06 02:15:46;;;;;;;7.22;2.97;;;;;;;8.07;96.94;102231.13;10246083;28;20079;-74
2021/11/06 02:20:48;;;;;;;5.85;1.50;;;;;;;8.08;97.12;102233.59;10249452;28;20071;-73
2021/11/06 02:25:45;;;;;;;11.00;1.77;;;;;;;8.05;96.82;102228.66;10246994;28;20051;-71
2021/11/06 02:31:02;;;;;;;9.73;1.30;;;;;;;8.09;96.79;102228.97;10238790;28;20132;-74
2021/11/06 02:36:00;;;;;;;10.20;1.73;;;;;;;8.09;97.17;102228.97;10245294;28;20073;-75
2021/11/06 02:40:57;;;;;;;6.85;2.55;;;;;;;8.12;96.46;102234.72;10227516;28;20472;-72
2021/11/06 02:45:54;;;;;;;11.95;1.90;;;;;;;8.11;96.36;102245.88;10225207;28;20087;-73
2021/11/06 02:50:51;;;;;;;7.03;1.42;;;;;;;8.14;96.63;102232.53;10235069;28;20395;-73
2021/11/06 02:55:48;;;;;;;10.15;1.60;;;;;;;8.13;96.76;102236.34;10242567;28;20554;-71
2021/11/06 03:00:45;;;;;;;14.40;2.15;;;;;;;8.13;96.26;102230.91;10236283;28;20496;-72
2021/11/06 03:05:41;;;;;;;14.02;1.48;;;;;;;8.13;96.26;102236.34;10236539;28;20072;-73
2021/11/06 03:10:39;;;;;;;11.27;1.50;;;;;;;8.13;96.71;102239.06;10239439;28;20045;-73
2021/11/06 03:15:36;;;;;;;8.25;1.60;;;;;;;8.07;97.15;102242.03;10241005;28;20045;-74
2021/11/06 03:20:33;;;;;;;12.13;1.70;;;;;;;8.09;98.63;102235.22;10238914;28;20049;-75
2021/11/06 03:25:30;;;;;;;8.90;1.75;;;;;;;8.01;99.52;102227.56;10234643;28;20451;-74
2021/11/06 03:30:26;;;;;;;9.65;1.98;;;;;;;7.92;100.00;102231.88;10249207;28;20064;-74
2021/11/06 03:35:24;;;;;;;11.95;2.28;;;;;;;7.83;100.00;102214.38;10247736;28;20045;-74
2021/11/06 03:40:25;;;;;;;7.07;2.22;;;;;;;7.77;100.00;102213.50;10221430;28;20467;-74
2021/11/06 03:45:22;;;;;;;8.30;1.55;;;;;;;7.69;100.00;102216.75;10240687;28;20041;-70
2021/11/06 03:50:18;;;;;;;8.07;2.05;;;;;;;7.75;100.00;102212.94;10223060;28;20045;-75
2021/11/06 03:55:15;;;;;;;11.77;2.47;;;;;;;7.71;100.00;102209.94;10239905;28;20054;-75
2021/11/06 04:00:14;;;;;;;11.57;2.30;;;;;;;7.73;100.00;102220.59;10247778;28;20491;-74
2021/11/06 04:05:11;;;;;;;9.10;2.00;;;;;;;7.68;99.76;102207.75;10240815;28;20045;-71
2021/11/06 04:10:10;;;;;;;5.70;2.00;;;;;;;7.78;99.66;102213.25;10238661;28;20065;-73
2021/11/06 04:15:10;;;;;;;13.10;2.78;;;;;;;7.75;99.15;102213.78;10239182;28;20100;-74
2021/11/06 04:20:07;;;;;;;7.07;2.40;;;;;;;7.80;98.87;102222.00;10239933;28;20080;-73
2021/11/06 04:25:05;;;;;;;8.45;2.83;;;;;;;7.86;99.06;102225.56;10217933;28;20076;-74
2021/11/06 04:30:04;;;;;;;12.38;2.78;;;;;;;7.87;98.74;102235.38;10234111;28;20049;-74
2021/11/06 04:35:00;;;;;;;12.02;2.90;;;;;;;7.83;99.05;102231.53;10233329;28;20103;-75
2021/11/06 04:39:57;;;;;;;8.18;3.03;;;;;;;7.79;99.69;102236.66;10237347;28;20758;-72
2021/11/06 04:44:53;;;;;;;8.10;3.78;;;;;;;7.82;99.53;102234.50;10247298;28;20048;-75
2021/11/06 04:49:50;;;;;;;8.85;3.45;;;;;;;7.80;99.17;102243.78;10239293;28;20057;-75
2021/11/06 04:54:46;;;;;;;12.65;4.75;;;;;;;7.77;99.66;102244.31;10245250;28;20115;-73
2021/11/06 04:59:44;;;;;;;10.40;3.63;;;;;;;7.79;99.59;102250.28;10234193;28;20106;-75
2021/11/06 05:04:40;;;;;;;10.38;4.05;;;;;;;7.82;99.79;102250.84;10244460;28;20099;-74
2021/11/06 05:09:37;;;;;;;15.23;4.20;;;;;;;7.78;99.24;102248.66;10238910;28;20072;-72
2021/11/06 05:14:33;;;;;;;10.48;4.78;;;;;;;7.83;100.00;102247.06;10242385;28;20473;-75
2021/11/06 05:19:30;;;;;;;12.13;5.03;;;;;;;7.79;99.85;102253.00;10236366;28;20065;-74
2021/11/06 05:24:28;;;;;;;14.88;6.00;;;;;;;7.83;100.00;102241.63;10226702;28;20041;-74
2021/11/06 05:29:24;;;;;;;14.90;5.60;;;;;;;7.82;100.00;102234.50;10234329;28;20041;-73
2021/11/06 05:34:21;;;;;;;12.07;5.47;;;;;;;7.77;100.00;102238.88;10236517;28;20083;-73
2021/11/06 05:39:18;;;;;;;12.77;5.70;;;;;;;7.87;99.86;102237.28;10214813;28;20068;-74
2021/11/06 05:44:15;;;;;;;12.45;6.10;;;;;;;7.82;100.00;102242.69;10240833;28;20099;-72
2021/11/06 05:49:11;;;;;;;11.80;6.38;;;;;;;7.79;100.00;102242.13;10233005;28;20037;-71
2021/11/06 05:54:08;;;;;;;12.13;6.72;;;;;;;7.84;100.00;102235.06;10233937;28;20049;-72
2021/11/06 05:59:05;;;;;;;13.38;6.32;;;;;;;7.79;100.00;102241.31;10238247;28;20072;-72
2021/11/06 06:04:02;;;;;;;12.60;6.80;;;;;;;7.83;99.91;102236.16;10259626;28;20053;-72
2021/11/06 06:08:58;;;;;;;12.93;6.30;;;;;;;7.77;99.42;102238.88;10257340;28;20069;-72
2021/11/06 06:13:56;;;;;;;15.90;6.78;;;;;;;7.76;99.21;102237.22;10238293;28;20384;-73
2021/11/06 06:18:53;;;;;;;15.40;8.20;;;;;;;7.73;99.06;102237.75;10251477;28;20045;-72
2021/11/06 06:23:49;;;;;;;11.88;7.47;;;;;;;7.82;99.21;102245.41;10233506;28;20323;-73
2021/11/06 06:28:46;;;;;;;14.07;6.53;;;;;;;7.77;98.68;102244.31;10249317;28;20686;-72
2021/11/06 06:33:43;;;;;;;17.35;7.30;;;;;;;7.71;98.93;102250.78;10232042;28;20492;-73
2021/11/06 06:38:39;;;;;;;11.73;7.05;;;;;;;7.77;98.37;102238.03;10245996;28;20073;-74
2021/11/06 06:43:36;;;;;;;14.48;7.18;;;;;;;7.80;98.56;102254.66;10245928;28;20058;-74
2021/11/06 06:48:32;;;;;;;15.63;7.57;;;;;;;7.83;98.62;102268.84;10250251;28;20854;-74
2021/11/06 06:53:29;;;;;;;19.42;8.55;;;;;;;7.79;98.29;102263.09;10225586;28;20496;-72
2021/11/06 06:58:26;;;;;;;16.52;8.40;;;;;;;7.84;98.25;102260.41;10224549;28;20095;-72
2021/11/06 07:03:22;;;;;;;14.77;8.30;;;;;;;7.83;98.30;102274.28;10220150;28;20515;-74
2021/11/06 07:08:21;;;;;;;17.92;8.65;;;;;;;7.90;98.52;102280.34;10213771;28;20034;-71
2021/11/06 07:13:21;;;;;;;18.30;9.40;;;;;;;7.93;97.82;102268.91;10220224;28;20045;-73
2021/11/06 07:18:18;;;;;;;19.50;9.57;;;;;;;7.91;97.84;102281.97;10215206;28;20077;-73
2021/11/06 07:23:15;;;;;;;18.08;10.27;;;;;;;7.91;97.30;102292.84;10215350;28;20053;-73
2021/11/06 07:28:11;;;;;;;19.92;11.75;;;;;;;7.91;97.36;102276.50;10226732;28;20506;-74
2021/11/06 07:33:07;;;;;;;21.77;12.23;;;;;;;7.90;98.26;102302.13;10219891;28;20049;-74
2021/11/06 07:38:04;;;;;;;18.27;11.82;;;;;;;7.94;98.11;102293.16;10217623;28;20042;-74
2021/11/06 07:43:02;;;;;;;21.27;13.07;;;;;;;8.05;98.44;102283.16;10218076;28;20482;-74
2021/11/06 07:47:59;;;;;;;23.38;13.93;;;;;;;8.04;97.66;102286.97;10217773;28;20108;-73
2021/11/06 07:52:56;;;;;;;27.77;14.52;;;;;;;8.12;97.64;102299.25;10217346;28;20124;-74
2021/11/06 07:57:53;;;;;;;25.38;15.60;;;;;;;8.18;97.11;102293.59;10221408;28;20137;-73
2021/11/06 08:02:50;;;;;;;32.08;17.60;;;;;;;8.21;96.75;102287.63;10217173;28;20090;-73
2021/11/06 08:07:46;;;;;;;27.70;18.33;;;;;;;8.20;97.41;102269.63;10212932;28;20099;-73
2021/11/06 08:12:43;;;;;;;29.40;18.52;;;;;;;8.18;97.33;102266.34;10211183;28;20501;-72
2021/11/06 08:17:40;;;;;;;29.65;19.42;;;;;;;8.35;97.21;102273.50;10223190;28;20128;-72
2021/11/06 08:22:37;;;;;;;34.40;20.42;;;;;;;8.33;97.08;102270.22;10220122;28;20088;-73
2021/11/06 08:27:34;;;;;;;33.38;20.85;;;;;;;8.40;97.09;102281.75;10220953;28;20084;-73
2021/11/06 08:32:30;;;;;;;38.63;23.08;;;;;;;8.40;96.31;102270.84;10225657;28;20163;-70
2021/11/06 08:37:27;;;;;;;33.50;21.23;;;;;;;8.45;96.80;102281.78;10215974;28;20080;-71
2021/11/06 08:42:23;;;;;;;35.95;23.52;;;;;;;8.44;96.93;102280.13;10223866;28;20096;-71
2021/11/06 08:47:19;;;;;;;34.25;22.67;;;;;;;8.42;96.76;102298.66;10220448;28;20103;-71
2021/11/06 08:52:18;;;;;;;41.15;24.42;;;;;;;8.42;97.36;102282.31;10222160;28;20503;-73
2021/11/06 08:57:17;;;;;;;32.50;22.65;;;;;;;8.37;96.79;102290.44;10217410;28;20147;-72
2021/11/06 09:02:14;;;;;;;35.55;24.80;;;;;;;8.42;96.74;102287.75;10218377;28;20046;-74
2021/11/06 09:07:10;;;;;;;37.78;23.25;;;;;;;8.44;96.79;102274.69;10221348;28;20050;-74
2021/11/06 09:12:07;;;;;;;37.65;25.73;;;;;;;8.51;96.12;102263.53;10213099;28;20049;-73
2021/11/06 09:17:04;;;;;;;39.25;25.83;;;;;;;8.53;96.65;102267.63;10221121;28;20049;-73
2021/11/06 09:22:01;;;;;;;37.47;26.17;;;;;;;8.66;96.41;102268.22;10211727;28;20050;-74
2021/11/06 09:26:57;;;;;;;36.88;25.88;;;;;;;8.74;96.19;102275.91;10217179;28;20041;-74
2021/11/06 09:31:54;;;;;;;39.03;24.67;;;;;;;8.74;95.53;102281.38;10220759;28;20099;-73
2021/11/06 09:36:50;;;;;;;36.25;25.95;;;;;;;8.78;96.38;102287.94;10228367;28;20069;-71
2021/11/06 09:41:47;;;;;;;29.83;21.88;;;;;;;8.76;95.46;102290.09;10233430;28;20041;-73
2021/11/06 09:46:44;;;;;;;30.05;24.35;;;;;;;8.88;95.38;102284.41;10227646;28;20045;-72
2021/11/06 09:51:40;;;;;;;32.53;24.48;;;;;;;8.89;94.29;102270.50;10230186;28;20077;-73
2021/11/06 09:56:36;;;;;;;33.13;22.40;;;;;;;8.99;94.46;102270.53;10222344;28;20104;-73
2021/11/06 10:01:33;;;;;;;36.10;24.83;;;;;;;8.97;93.89;102277.34;10221798;28;20768;-73
2021/11/06 10:06:30;;;;;;;35.85;24.55;;;;;;;9.04;93.71;102270.53;10224095;28;20133;-73
2021/11/06 10:11:29;;;;;;;32.22;23.38;;;;;;;9.07;93.67;102266.44;10221908;28;20499;-73
2021/11/06 10:17:00;;;;;;;33.95;23.38;;;;;;;9.08;94.28;102264.56;10224244;28;20041;-73
2021/11/06 10:22:15;;;;;;;32.47;23.67;;;;;;;9.13;93.68;102253.66;10211674;28;20080;-74
2021/11/06 10:27:22;;;;;;;35.90;24.83;;;;;;;9.15;93.75;102248.75;10229307;28;20410;-73
2021/11/06 10:32:19;;;;;;;35.25;23.48;;;;;;;9.15;93.07;102248.75;10227730;28;20076;-75
2021/11/06 10:37:24;;;;;;;30.92;22.17;;;;;;;9.18;93.49;102242.72;10224883;28;20064;-76
2021/11/06 10:42:32;;;;;;;36.47;23.80;;;;;;;9.18;93.55;102238.09;10222689;28;20108;-75
2021/11/06 10:47:55;;;;;;;32.65;21.75;;;;;;;9.19;93.32;102247.09;10221125;28;20080;-75
2021/11/06 10:52:52;;;;;;;35.22;23.17;;;;;;;9.15;93.55;102237.81;10228614;28;20051;-75
2021/11/06 10:57:49;;;;;;;33.38;22.80;;;;;;;9.17;93.42;102254.75;10236240;28;20088;-75
2021/11/06 11:02:46;;;;;;;32.33;23.25;;;;;;;9.09;94.31;102219.78;10230058;28;20049;-75
2021/11/06 11:08:08;;;;;;;28.67;21.70;;;;;;;9.13;94.10;102226.34;10226726;28;20054;-74
2021/11/06 11:13:13;;;;;;;36.05;23.90;;;;;;;9.13;93.57;102210.00;10226969;28;20561;-74
2021/11/06 11:18:36;;;;;;;33.75;24.63;;;;;;;9.17;94.38;102208.34;10219768;28;20662;-74
2021/11/06 11:23:32;;;;;;;31.65;22.75;;;;;;;9.18;93.33;102199.06;10217382;28;20077;-75
2021/11/06 11:28:29;;;;;;;30.90;21.58;;;;;;;9.17;93.38;102205.63;10225650;28;20511;-75
2021/11/06 11:33:25;;;;;;;34.20;23.23;;;;;;;9.24;93.20;102187.06;10216375;28;20566;-74
2021/11/06 11:38:22;;;;;;;31.10;23.05;;;;;;;9.26;93.00;102198.53;10243405;28;20069;-72
2021/11/06 11:44:17;;;;;;;29.33;22.58;;;;;;;9.24;92.41;102181.63;10228499;28;20184;-74
2021/11/06 11:49:15;;;;;;;33.75;22.83;;;;;;;9.20;92.99;102183.25;10162504;28;20092;-76
2021/11/06 11:54:12;;;;;;;31.60;22.75;;;;;;;9.20;93.14;102189.50;10242521;28;20041;-75
2021/11/06 11:59:31;;;;;;;31.73;23.73;;;;;;;9.20;93.13;102166.88;10241463;28;20077;-76
2021/11/06 12:04:29;;;;;;;36.15;23.08;;;;;;;9.22;93.39;102153.78;10241235;28;20081;-74
2021/11/06 12:09:25;;;;;;;31.70;22.58;;;;;;;9.33;92.96;102160.88;10235235;28;20090;-71
2021/11/06 12:14:34;;;;;;;30.98;21.77;;;;;;;9.36;92.91;102165.78;10230478;28;20091;-71
2021/11/06 12:19:40;;;;;;;31.73;21.95;;;;;;;9.31;91.32;102163.06;10217439;28;20555;-71
2021/11/06 12:24:37;;;;;;;32.25;21.33;;;;;;;9.34;91.47;102153.50;10217457;28;20091;-70
2021/11/06 12:29:36;;;;;;;29.98;21.00;;;;;;;9.36;91.59;102143.13;10223639;28;20091;-71
2021/11/06 12:35:01;;;;;;;30.42;20.50;;;;;;;9.36;91.16;102133.00;10228189;28;20068;-72
2021/11/06 12:39:59;;;;;;;35.50;22.38;;;;;;;9.34;90.76;102135.19;10230741;28;20443;-72
2021/11/06 12:45:10;;;;;;;33.78;19.67;;;;;;;9.33;91.40;102127.28;10231949;28;20064;-72
2021/11/06 12:50:17;;;;;;;28.02;19.48;;;;;;;9.42;91.34;102121.00;10219492;28;20084;-70
2021/11/06 12:55:16;;;;;;;29.02;19.25;;;;;;;9.42;91.54;102117.44;10235721;28;20494;-71
2021/11/06 13:00:24;;;;;;;34.17;20.23;;;;;;;9.42;91.45;102110.09;10213000;28;20045;-68
2021/11/06 13:05:23;;;;;;;27.55;20.23;;;;;;;9.45;92.05;102101.34;10208183;28;20064;-70
2021/11/06 13:10:24;;;;;;;30.30;19.98;;;;;;;9.45;92.04;102087.69;10219452;28;20050;-72
2021/11/06 13:15:21;;;;;;;31.67;20.08;;;;;;;9.47;91.63;102085.50;10223584;28;20491;-71
2021/11/06 13:20:18;;;;;;;27.52;19.38;;;;;;;9.38;91.47;102076.25;10243123;28;20072;-71
2021/11/06 13:25:23;;;;;;;26.30;19.45;;;;;;;9.42;91.49;102066.41;10214298;28;20045;-70
2021/11/06 13:30:39;;;;;;;26.60;18.77;;;;;;;9.37;91.40;102068.31;10248345;28;20100;-75
2021/11/06 13:35:38;;;;;;;28.63;18.33;;;;;;;9.40;91.81;102074.06;10213335;28;20071;-70
2021/11/06 13:41:04;;;;;;;25.30;18.52;;;;;;;9.42;92.10;102058.22;10230163;28;20396;-70
2021/11/06 13:46:16;;;;;;;27.85;18.02;;;;;;;9.47;91.06;102051.94;10217977;28;20049;-70
2021/11/06 13:51:20;;;;;;;26.38;17.48;;;;;;;9.44;90.78;102031.44;10222737;28;20057;-70
2021/11/06 13:56:16;;;;;;;32.47;19.02;;;;;;;9.43;91.25;102021.63;10238646;28;20546;-71
2021/11/06 14:01:13;;;;;;;32.10;19.77;;;;;;;9.37;90.60;102020.00;10239163;28;20569;-71
2021/11/06 14:06:09;;;;;;;24.20;17.67;;;;;;;9.40;90.08;102019.47;10242533;28;20049;-71
2021/11/06 14:11:06;;;;;;;29.77;19.85;;;;;;;9.41;90.68;102001.97;10235907;28;20050;-71
2021/11/06 14:16:14;;;;;;;25.33;16.75;;;;;;;9.35;90.28;102016.75;10228282;28;20050;-71
2021/11/06 14:21:23;;;;;;;27.42;17.20;;;;;;;9.34;90.29;101998.72;10236352;28;20076;-71
2021/11/06 14:26:23;;;;;;;25.83;16.33;;;;;;;9.35;90.46;102000.38;10235814;28;20137;-68
2021/11/06 14:31:33;;;;;;;26.75;17.02;;;;;;;9.34;90.19;101992.44;10248378;28;20152;-71
2021/11/06 14:36:32;;;;;;;26.45;16.98;;;;;;;9.37;90.41;101992.69;10231805;28;20459;-71
2021/11/06 14:41:42;;;;;;;30.33;17.13;;;;;;;9.34;89.81;101996.00;10225912;28;20283;-70
2021/11/06 14:46:52;;;;;;;23.67;14.98;;;;;;;9.34;90.52;101982.34;10221877;28;20081;-71
2021/11/06 14:52:00;;;;;;;28.15;17.85;;;;;;;9.34;90.14;101965.97;10219445;28;20140;-70
2021/11/06 14:56:57;;;;;;;28.98;15.23;;;;;;;9.32;90.03;101962.69;10216368;28;20103;-74
2021/11/06 15:01:56;;;;;;;22.25;13.82;;;;;;;9.28;89.75;101961.63;10230567;28;20503;-71
2021/11/06 15:06:57;;;;;;;24.40;15.02;;;;;;;9.26;90.14;101975.56;10219837;28;20050;-71
2021/11/06 15:11:54;;;;;;;24.77;15.02;;;;;;;9.26;89.68;101963.84;10221658;28;20080;-71
2021/11/06 15:16:51;;;;;;;22.77;14.13;;;;;;;9.26;89.81;101948.25;10210446;28;20095;-71
2021/11/06 15:21:48;;;;;;;24.55;14.38;;;;;;;9.27;89.27;101946.34;10222588;28;20057;-70
2021/11/06 15:26:45;;;;;;;24.90;14.57;;;;;;;9.24;88.89;101938.72;10212114;28;20042;-69
2021/11/06 15:31:41;;;;;;;22.25;14.27;;;;;;;9.26;89.67;101928.34;10237809;28;20124;-69
2021/11/06 15:36:38;;;;;;;24.10;12.75;;;;;;;9.23;89.55;101920.69;10232888;28;20046;-70
2021/11/06 15:41:35;;;;;;;19.40;12.60;;;;;;;9.20;89.25;101926.72;10234759;28;20458;-71
2021/11/06 15:46:31;;;;;;;21.58;12.35;;;;;;;9.18;89.75;101912.53;10245508;28;20565;-70
2021/11/06 15:51:38;;;;;;;19.67;11.43;;;;;;;9.16;89.60;101909.28;10234595;28;20107;-68
2021/11/06 15:56:36;;;;;;;18.98;11.77;;;;;;;9.14;89.55;101906.00;10224119;28;20049;-71
2021/11/06 16:01:36;;;;;;;21.45;12.20;;;;;;;9.14;89.15;101909.53;10248450;28;20060;-71
2021/11/06 16:06:34;;;;;;;18.77;11.65;;;;;;;9.14;89.63;101901.34;10228142;28;20071;-71
2021/11/06 16:11:31;;;;;;;21.33;11.38;;;;;;;9.18;89.84;101898.91;10237782;28;20053;-73
2021/11/06 16:16:28;;;;;;;21.52;11.05;;;;;;;9.17;89.10;101905.47;10247920;28;20076;-71
2021/11/06 16:21:27;;;;;;;18.10;10.57;;;;;;;9.15;89.15;101902.19;10244189;28;20083;-73
2021/11/06 16:26:24;;;;;;;16.45;10.38;;;;;;;9.13;89.38;101883.38;10235890;28;20085;-70
2021/11/06 16:31:22;;;;;;;19.10;10.45;;;;;;;9.16;89.36;101873.81;10237837;28;20076;-69
2021/11/06 16:36:19;;;;;;;22.77;10.48;;;;;;;9.14;89.05;101859.63;10224944;28;20143;-71
2021/11/06 16:41:17;;;;;;;18.02;10.50;;;;;;;9.19;89.70;101856.84;10234913;28;20103;-70
2021/11/06 16:46:19;;;;;;;19.42;9.88;;;;;;;9.20;88.77;101850.31;10239928;28;20049;-70
2021/11/06 16:51:16;;;;;;;15.90;10.48;;;;;;;9.15;88.67;101853.88;10244660;28;20072;-71
2021/11/06 16:56:13;;;;;;;15.45;9.80;;;;;;;9.11;88.61;101841.91;10231176;28;20732;-71
2021/11/06 17:01:11;;;;;;;16.27;9.85;;;;;;;9.16;89.06;101832.88;10238380;28;20494;-69
2021/11/06 17:06:14;;;;;;;14.20;9.25;;;;;;;9.18;88.31;101803.41;10237799;28;20075;-73
2021/11/06 17:11:14;;;;;;;17.30;10.15;;;;;;;9.19;88.29;101807.75;10236552;28;20199;-71
2021/11/06 17:16:10;;;;;;;17.58;9.95;;;;;;;9.18;88.04;101793.28;10241673;28;20465;-71
2021/11/06 17:21:08;;;;;;;18.85;10.30;;;;;;;9.12;88.55;101788.13;10237136;28;20046;-71
2021/11/06 17:26:07;;;;;;;18.85;9.82;;;;;;;9.14;87.65;101796.88;10221298;28;20104;-70
2021/11/06 17:31:04;;;;;;;16.90;9.50;;;;;;;9.11;87.73;101781.06;10246154;28;20037;-71
2021/11/06 17:36:03;;;;;;;15.98;10.02;;;;;;;9.16;87.91;101783.75;10237169;28;20652;-68
2021/11/06 17:41:00;;;;;;;17.85;8.82;;;;;;;9.18;87.02;101766.00;10227022;28;20115;-71
2021/11/06 17:45:57;;;;;;;13.25;8.82;;;;;;;9.17;87.16;101747.19;10242031;28;20076;-71
2021/11/06 17:51:03;;;;;;;13.00;9.55;;;;;;;9.18;86.82;101733.25;10223743;28;20069;-71
2021/11/06 17:56:00;;;;;;;13.88;8.95;;;;;;;9.19;86.84;101723.16;10246628;28;20044;-70
2021/11/06 18:01:00;;;;;;;14.95;9.75;;;;;;;9.19;86.67;101718.53;10244566;28;20046;-71
2021/11/06 18:05:57;;;;;;;17.10;9.75;;;;;;;9.21;87.05;101712.78;10245032;28;20068;-70
2021/11/06 18:10:55;;;;;;;14.32;9.35;;;;;;;9.22;86.82;101717.16;10246129;28;20089;-73
2021/11/06 18:15:52;;;;;;;14.55;9.10;;;;;;;9.20;86.26;101719.34;10236048;28;20041;-72
2021/11/06 18:20:48;;;;;;;14.30;9.02;;;;;;;9.21;86.35;101720.97;10248841;28;20099;-72
2021/11/06 18:25:45;;;;;;;13.95;8.50;;;;;;;9.20;86.37;101713.88;10240880;28;20185;-71
2021/11/06 18:30:42;;;;;;;14.48;8.15;;;;;;;9.19;86.08;101706.78;10242266;28;20046;-71
2021/11/06 18:35:39;;;;;;;13.48;8.52;;;;;;;9.19;85.65;101674.03;10245702;28;20052;-72
2021/11/06 18:40:38;;;;;;;16.27;9.60;;;;;;;9.18;85.94;101689.59;10229347;28;20048;-72
2021/11/06 18:45:36;;;;;;;13.35;9.05;;;;;;;9.23;85.90;101669.66;10245117;28;20052;-72
2021/11/06 18:50:32;;;;;;;13.25;8.40;;;;;;;9.19;85.63;101663.13;10235123;28;20064;-72
2021/11/06 18:55:29;;;;;;;13.13;8.75;;;;;;;9.22;85.59;101662.56;10246012;28;20044;-72
2021/11/06 19:00:29;;;;;;;15.95;9.32;;;;;;;9.20;85.83;101670.22;10241536;28;20042;-71
2021/11/06 19:05:28;;;;;;;13.10;8.90;;;;;;;9.22;85.99;101646.19;10224983;28;20495;-70
2021/11/06 19:10:27;;;;;;;13.77;9.73;;;;;;;9.30;85.62;101634.66;10243066;28;20508;-71
2021/11/06 19:15:23;;;;;;;14.20;9.15;;;;;;;9.27;85.88;101624.31;10235854;28;20076;-70
2021/11/06 19:20:25;;;;;;;12.82;8.73;;;;;;;9.28;85.66;101623.19;10245144;28;20056;-70
2021/11/06 19:25:22;;;;;;;13.77;9.35;;;;;;;9.24;85.91;101616.72;10226470;28;20057;-71
2021/11/06 19:30:21;;;;;;;13.25;8.75;;;;;;;9.30;85.21;101599.16;10239761;28;20049;-70
2021/11/06 19:35:17;;;;;;;14.10;9.23;;;;;;;9.23;85.27;101610.41;10251999;28;20061;-70
2021/11/06 19:40:21;;;;;;;17.55;8.75;;;;;;;9.30;85.38;101610.09;10228157;28;20071;-71
2021/11/06 19:45:18;;;;;;;;;;;;;;;9.30;85.06;101599.16;10246183;28;20426;-71
2021/11/06 19:50:17;;;;;;;12.52;9.05;;;;;;;9.30;84.95;101593.72;10238312;28;20360;-71
2021/11/06 19:55:14;;;;;;;14.25;9.23;;;;;;;9.27;85.21;101588.84;10246482;28;20071;-72
2021/11/06 20:00:14;;;;;;;12.15;8.05;;;;;;;9.30;84.73;101593.72;10249924;28;20698;-71
2021/11/06 20:05:11;;;;;;;11.73;8.05;;;;;;;9.38;84.88;101595.84;10241756;28;20049;-71
2021/11/06 20:10:08;;;;;;;13.45;8.20;;;;;;;9.40;84.40;101599.09;10250477;28;20613;-72
2021/11/06 20:15:05;;;;;;;11.88;8.00;;;;;;;9.41;85.30;101578.06;10230539;28;20080;-71
2021/11/06 20:20:04;;;;;;;12.15;8.30;;;;;;;9.41;84.53;101578.88;10250305;28;20071;-71
2021/11/06 20:25:01;;;;;;;13.32;8.52;;;;;;;9.44;84.60;101566.56;10234077;28;20617;-72
2021/11/06 20:29:58;;;;;;;11.63;8.25;;;;;;;9.43;85.05;101571.22;10240168;28;20406;-71
2021/11/06 20:34:54;;;;;;;14.07;8.43;;;;;;;9.40;84.64;101554.59;10232658;28;20136;-71
2021/11/06 20:39:51;;;;;;;13.63;8.10;;;;;;;9.37;84.90;101536.88;10241770;28;20069;-70
2021/11/06 20:44:48;;;;;;;14.90;9.55;;;;;;;9.33;86.72;101527.66;10231907;28;20045;-71
2021/11/06 20:49:46;;;;;;;16.65;8.98;;;;;;;9.31;86.77;101524.41;10241484;28;20068;-69
2021/11/06 20:54:43;;;;;;;13.18;9.02;;;;;;;9.33;87.54;101516.75;10240596;28;20049;-71
2021/11/06 20:59:40;;;;;;;11.70;8.27;;;;;;;9.30;87.42;101511.84;10234343;28;20125;-71
2021/11/06 21:04:37;;;;;;;13.77;8.50;;;;;;;9.32;87.93;101495.19;10220810;28;20467;-71
2021/11/06 21:15:54;;;;;;;;;;;;;;;9.33;88.43;101477.69;10073910;28;20144;-71
2021/11/06 21:20:28;;;;;;;11.50;7.35;;;;;;;9.19;89.34;101461.22;10183614;28;19924;-74
2021/11/06 21:25:25;;;;;;;11.93;8.70;;;;;;;9.26;90.31;101461.69;10213960;28;21399;-70
2021/11/06 21:30:22;;;;;;;12.98;9.15;;;;;;;9.25;90.32;101460.88;10216460;28;20041;-69
2021/11/06 21:35:20;;;;;;;15.55;9.73;;;;;;;9.17;91.51;101441.63;10222172;28;20137;-70
2021/11/06 21:40:23;;;;;;;16.23;9.18;;;;;;;9.23;92.00;101429.50;10216746;28;20161;-70
2021/11/06 21:45:21;;;;;;;13.60;10.40;;;;;;;9.19;92.76;101415.66;10214233;28;20148;-70
2021/11/06 21:50:21;;;;;;;15.85;10.65;;;;;;;9.11;92.39;101410.03;10220204;28;20130;-71
2021/11/06 21:55:21;;;;;;;12.63;9.70;;;;;;;9.17;92.28;101387.03;10227448;28;20104;-71
2021/11/06 22:00:28;;;;;;;12.60;8.63;;;;;;;9.15;92.16;101381.06;10221823;28;20137;-70
2021/11/06 22:05:26;;;;;;;13.90;9.85;;;;;;;9.18;92.16;101383.19;10225019;28;20048;-70
2021/11/06 22:10:26;;;;;;;13.73;9.48;;;;;;;9.12;92.70;101374.28;10215274;28;20068;-71
2021/11/06 22:15:23;;;;;;;16.27;8.88;;;;;;;9.13;92.60;101359.53;10212663;28;21253;-70
2021/11/06 22:20:27;;;;;;;17.60;9.98;;;;;;;9.18;92.65;101336.81;10207357;28;20486;-69
2021/11/06 22:25:24;;;;;;;13.93;9.15;;;;;;;9.22;92.58;101321.50;10214215;28;20042;-69
2021/11/06 22:30:21;;;;;;;14.05;9.38;;;;;;;9.27;91.71;101315.97;10226099;28;20088;-70
2021/11/06 22:35:18;;;;;;;13.10;9.25;;;;;;;9.27;91.69;101321.41;10227696;28;20049;-71
2021/11/06 22:40:17;;;;;;;15.80;8.75;;;;;;;9.26;91.10;101314.34;10238254;28;20045;-71
2021/11/06 22:45:17;;;;;;;16.20;9.98;;;;;;;9.26;92.74;101281.59;10221754;28;20050;-71
2021/11/06 22:50:18;;;;;;;16.65;9.93;;;;;;;9.23;92.78;101287.63;10217636;28;20061;-71
2021/11/06 22:55:15;;;;;;;17.83;9.90;;;;;;;9.22;91.51;101280.56;10216927;28;20081;-68